Time;durP1;ratioP1;P1;durP2;ratioP2;P2;SDS_P1;SDS_P2;PMS_P1;PMS_P2;Temp;Humidity;BMP_temperature;BMP_pressure;BME280_temperature;BME280_humidity;BME280_pressure;Samples;Min_cycle;Max_cycle;Signal;HPM_P1;HPM_P2
2022/11/19 00:02:22;;;;;;;;;;;;;;;4.67;97.0625;101031.1;;;;-74
2022/11/19 00:07:21;;;;;;;;;;;;;;;4.66;96.89746;101043.2;;;;-74
2022/11/19 00:08:33;;;;;;;15.6;7.5;;;;;;;;;;;;;-75
2022/11/19 00:17:21;;;;;;;;;;;;;;;4.66;96.88477;101055.5;;;;-76
2022/11/19 00:22:21;;;;;;;;;;;;;;;4.58;96.88867;101063.4;;;;-76
2022/11/19 00:27:21;;;;;;;;;;;;;;;4.56;96.6582;101066.2;;;;-76
2022/11/19 00:32:21;;;;;;;;;;;;;;;4.5;96.63281;101075.1;;;;-77
2022/11/19 00:37:21;;;;;;;;;;;;;;;4.49;96.54395;101074.6;;;;-76
2022/11/19 00:38:33;;;;;;;17.9;8.3;;;;;;;;;;;;;-75
2022/11/19 00:42:23;;;;;;;;;;;;;;;4.44;96.41504;101082.4;;;;-75
2022/11/19 00:47:21;;;;;;;;;;;;;;;4.41;96.50586;101079;;;;-75
2022/11/19 00:52:21;;;;;;;;;;;;;;;4.42;96.47363;101086.4;;;;-76
2022/11/19 00:57:21;;;;;;;;;;;;;;;4.38;96.3457;101090.3;;;;-74
2022/11/19 01:02:21;;;;;;;;;;;;;;;4.34;96.31445;101094.7;;;;-76
2022/11/19 01:07:21;;;;;;;;;;;;;;;4.31;96.30859;101101.3;;;;-75
2022/11/19 01:08:33;;;;;;;19.9;8.8;;;;;;;;;;;;;-76
2022/11/19 01:12:21;;;;;;;;;;;;;;;4.29;96.21582;101112.9;;;;-76
2022/11/19 01:17:21;;;;;;;;;;;;;;;4.27;96.14844;101123.8;;;;-76
2022/11/19 01:22:21;;;;;;;;;;;;;;;4.24;96.09668;101123.3;;;;-76
2022/11/19 01:27:21;;;;;;;;;;;;;;;4.19;96.03223;101124.9;;;;-75
2022/11/19 01:32:21;;;;;;;;;;;;;;;4.18;95.92188;101126.9;;;;-75
2022/11/19 01:37:21;;;;;;;;;;;;;;;4.16;95.92871;101124;;;;-75
2022/11/19 01:38:32;;;;;;;20.3;9;;;;;;;;;;;;;-76
2022/11/19 01:42:48;;;;;;;;;;;;;;;4.17;95.77832;101132.4;;;;-76
2022/11/19 01:47:21;;;;;;;;;;;;;;;4.14;95.75098;101135.4;;;;-75
2022/11/19 01:52:21;;;;;;;;;;;;;;;4.12;95.64941;101133.2;;;;-75
2022/11/19 01:57:21;;;;;;;;;;;;;;;4.1;95.50195;101143;;;;-74
2022/11/19 02:02:22;;;;;;;;;;;;;;;4.09;95.6084;101151.2;;;;-74
2022/11/19 02:07:27;;;;;;;;;;;;;;;4.05;95.61133;101160.3;;;;-75
2022/11/19 02:08:46;;;;;;;22.6;9.6;;;;;;;;;;;;;-75
2022/11/19 02:12:26;;;;;;;;;;;;;;;4.08;95.58496;101161.4;;;;-74
2022/11/19 02:17:29;;;;;;;;;;;;;;;4.05;95.69629;101168.2;;;;-76
2022/11/19 02:22:28;;;;;;;;;;;;;;;3.97;95.50684;101176.5;;;;-74
2022/11/19 02:27:44;;;;;;;;;;;;;;;3.96;95.69824;101180.3;;;;-75
2022/11/19 02:32:24;;;;;;;;;;;;;;;3.91;95.41699;101181;;;;-76
2022/11/19 02:37:25;;;;;;;;;;;;;;;3.88;95.38867;101179.3;;;;-75
2022/11/19 02:38:35;;;;;;;21;10.8;;;;;;;;;;;;;-75
2022/11/19 02:42:24;;;;;;;;;;;;;;;3.85;95.24219;101184.8;;;;-75
2022/11/19 02:47:25;;;;;;;;;;;;;;;3.82;95.11621;101185.3;;;;-76
2022/11/19 02:52:21;;;;;;;;;;;;;;;3.83;95.05176;101182.6;;;;-75
2022/11/19 02:57:21;;;;;;;;;;;;;;;3.8;94.75293;101182.8;;;;-76
2022/11/19 03:07:22;;;;;;;;;;;;;;;3.72;94.92969;101187;;;;-74
2022/11/19 03:08:32;;;;;;;19.2;9.4;;;;;;;;;;;;;-74
2022/11/19 03:12:25;;;;;;;;;;;;;;;3.73;94.88867;101190.8;;;;-74
2022/11/19 03:17:24;;;;;;;;;;;;;;;3.66;94.92676;101192.1;;;;-74
2022/11/19 03:22:24;;;;;;;;;;;;;;;3.67;94.70313;101191.9;;;;-74
2022/11/19 03:27:23;;;;;;;;;;;;;;;3.63;94.53027;101204.6;;;;-74
2022/11/19 03:32:22;;;;;;;;;;;;;;;3.58;94.66113;101205.3;;;;-74
2022/11/19 03:37:22;;;;;;;;;;;;;;;3.53;94.53223;101205.3;;;;-74
2022/11/19 03:38:35;;;;;;;18.5;8.5;;;;;;;;;;;;;-73
2022/11/19 03:42:23;;;;;;;;;;;;;;;3.45;94.49219;101212.9;;;;-75
2022/11/19 03:47:26;;;;;;;;;;;;;;;3.39;94.34668;101214.8;;;;-74
2022/11/19 03:52:22;;;;;;;;;;;;;;;3.35;94.22168;101222.9;;;;-75
2022/11/19 03:57:22;;;;;;;;;;;;;;;3.32;94.15918;101237.2;;;;-74
2022/11/19 04:02:21;;;;;;;;;;;;;;;3.29;94.14258;101237.8;;;;-74
2022/11/19 04:07:22;;;;;;;;;;;;;;;3.2;94.06836;101242.8;;;;-74
2022/11/19 04:08:32;;;;;;;16.5;7.4;;;;;;;;;;;;;-76
2022/11/19 04:12:22;;;;;;;;;;;;;;;3.19;93.61133;101250.2;;;;-73
2022/11/19 04:17:21;;;;;;;;;;;;;;;3.15;93.5498;101252.2;;;;-74
2022/11/19 04:22:21;;;;;;;;;;;;;;;3.16;93.47559;101265.8;;;;-76
2022/11/19 04:27:21;;;;;;;;;;;;;;;3.13;93.56738;101281;;;;-74
2022/11/19 04:32:21;;;;;;;;;;;;;;;3.05;93.47363;101275.4;;;;-75
2022/11/19 04:37:21;;;;;;;;;;;;;;;3.05;93.30273;101274.9;;;;-74
2022/11/19 04:38:33;;;;;;;13.4;6.8;;;;;;;;;;;;;-75
2022/11/19 04:42:22;;;;;;;;;;;;;;;3.04;93.41797;101279.4;;;;-74
2022/11/19 04:47:21;;;;;;;;;;;;;;;3.06;93.16113;101286.3;;;;-74
2022/11/19 04:52:21;;;;;;;;;;;;;;;3.03;92.92871;101277.7;;;;-75
2022/11/19 04:57:21;;;;;;;;;;;;;;;2.95;92.82617;101299.6;;;;-75
2022/11/19 05:02:21;;;;;;;;;;;;;;;2.95;92.57324;101301.5;;;;-74
2022/11/19 05:07:21;;;;;;;;;;;;;;;2.86;92.78223;101310.8;;;;-77
2022/11/19 05:08:31;;;;;;;13.2;6;;;;;;;;;;;;;-76
2022/11/19 05:12:21;;;;;;;;;;;;;;;2.91;92.87891;101321.9;;;;-75
2022/11/19 05:17:21;;;;;;;;;;;;;;;2.86;92.36035;101315.4;;;;-74
2022/11/19 05:22:21;;;;;;;;;;;;;;;2.83;92.24609;101326.7;;;;-75
2022/11/19 05:27:21;;;;;;;;;;;;;;;2.83;92.2793;101321.4;;;;-75
2022/11/19 05:32:21;;;;;;;;;;;;;;;2.75;92.41309;101326.6;;;;-74
2022/11/19 05:37:21;;;;;;;;;;;;;;;2.73;92.27734;101336.4;;;;-75
2022/11/19 05:38:30;;;;;;;9.3;4.6;;;;;;;;;;;;;-75
2022/11/19 05:42:21;;;;;;;;;;;;;;;2.71;91.99121;101338.3;;;;-76
2022/11/19 05:47:21;;;;;;;;;;;;;;;2.66;92.14453;101342.2;;;;-75
2022/11/19 05:52:21;;;;;;;;;;;;;;;2.6;91.72168;101344.4;;;;-76
2022/11/19 05:57:21;;;;;;;;;;;;;;;2.53;91.96582;101346.4;;;;-75
2022/11/19 06:02:21;;;;;;;;;;;;;;;2.49;91.8584;101350.3;;;;-75
2022/11/19 06:07:21;;;;;;;;;;;;;;;2.45;91.79688;101361.2;;;;-75
2022/11/19 06:08:30;;;;;;;11.6;4.7;;;;;;;;;;;;;-76
2022/11/19 06:12:21;;;;;;;;;;;;;;;2.36;91.75586;101356.7;;;;-76
2022/11/19 06:17:21;;;;;;;;;;;;;;;2.33;91.39063;101357.7;;;;-75
2022/11/19 06:27:33;;;;;;;;;;;;;;;;;;;;;
2022/11/19 06:32:21;;;;;;;;;;;;;;;2.27;91.31445;101390.1;;;;-76
2022/11/19 06:37:21;;;;;;;;;;;;;;;2.14;91.17676;101397.7;;;;-75
2022/11/19 06:38:32;;;;;;;9.9;4.6;;;;;;;;;;;;;-76
2022/11/19 06:47:24;;;;;;;;;;;;;;;2.08;91.25195;101404.9;;;;-74
2022/11/19 06:52:21;;;;;;;;;;;;;;;2;91.25586;101417.3;;;;-75
2022/11/19 06:57:21;;;;;;;;;;;;;;;1.96;91.0752;101425.1;;;;-75
2022/11/19 07:02:21;;;;;;;;;;;;;;;1.98;91.34082;101425.1;;;;-77
2022/11/19 07:07:21;;;;;;;;;;;;;;;1.87;90.85254;101425.3;;;;-75
2022/11/19 07:08:32;;;;;;;11.4;4.8;;;;;;;;;;;;;-75
2022/11/19 07:12:21;;;;;;;;;;;;;;;1.84;90.96387;101424;;;;-75
2022/11/19 07:17:21;;;;;;;;;;;;;;;1.8;90.93457;101428.1;;;;-77
2022/11/19 07:22:25;;;;;;;;;;;;;;;1.71;90.9043;101437.5;;;;-75
2022/11/19 07:27:22;;;;;;;;;;;;;;;1.66;90.74219;101445.2;;;;-76
2022/11/19 07:32:21;;;;;;;;;;;;;;;1.67;90.61426;101452.3;;;;-76
2022/11/19 07:37:21;;;;;;;;;;;;;;;1.61;90.65625;101460;;;;-75
2022/11/19 07:38:29;;;;;;;9.9;4.6;;;;;;;;;;;;;-75
2022/11/19 07:47:23;;;;;;;;;;;;;;;1.48;90.46777;101467.9;;;;-76
2022/11/19 07:52:21;;;;;;;;;;;;;;;1.41;90.40918;101473.8;;;;-76
2022/11/19 07:57:21;;;;;;;;;;;;;;;1.28;90.27246;101477.2;;;;-74
2022/11/19 08:02:21;;;;;;;;;;;;;;;1.25;90.15918;101481.4;;;;-75
2022/11/19 08:07:20;;;;;;;;;;;;;;;1.24;89.89746;101497;;;;-76
2022/11/19 08:08:28;;;;;;;9.6;4.3;;;;;;;;;;;;;-75
2022/11/19 08:12:21;;;;;;;;;;;;;;;1.17;90.24121;101498.4;;;;-75
2022/11/19 08:22:21;;;;;;;;;;;;;;;1.14;89.72559;101516.1;;;;-76
2022/11/19 08:27:21;;;;;;;;;;;;;;;1.22;89.66504;101514.4;;;;-75
2022/11/19 08:32:21;;;;;;;;;;;;;;;1.15;89.83398;101522;;;;-76
2022/11/19 08:37:21;;;;;;;;;;;;;;;1.2;89.47852;101531.7;;;;-76
2022/11/19 08:38:28;;;;;;;11.9;4.8;;;;;;;;;;;;;-75
2022/11/19 08:47:21;;;;;;;;;;;;;;;1.21;89.38477;101541.7;;;;-74
2022/11/19 08:52:21;;;;;;;;;;;;;;;1.26;89.42676;101540.1;;;;-74
2022/11/19 08:57:21;;;;;;;;;;;;;;;1.34;89.31445;101547.1;;;;-74
2022/11/19 09:02:21;;;;;;;;;;;;;;;1.31;89.37305;101549.4;;;;-74
2022/11/19 09:07:21;;;;;;;;;;;;;;;1.26;89.0166;101550.3;;;;-74
2022/11/19 09:08:27;;;;;;;10.4;4.4;;;;;;;;;;;;;-75
2022/11/19 09:12:21;;;;;;;;;;;;;;;1.26;89.03809;101550.6;;;;-74
2022/11/19 09:17:21;;;;;;;;;;;;;;;1.24;88.76465;101557.7;;;;-74
2022/11/19 09:22:21;;;;;;;;;;;;;;;1.35;88.75488;101563;;;;-74
2022/11/19 09:27:21;;;;;;;;;;;;;;;1.33;89.08496;101566.4;;;;-74
2022/11/19 09:32:21;;;;;;;;;;;;;;;1.4;89.03613;101564.2;;;;-74
2022/11/19 09:37:21;;;;;;;;;;;;;;;1.46;89.06836;101570.1;;;;-75
2022/11/19 09:38:30;;;;;;;10;4.6;;;;;;;;;;;;;-74
2022/11/19 09:42:26;;;;;;;;;;;;;;;1.5;89.24023;101575.8;;;;-75
2022/11/19 09:47:26;;;;;;;;;;;;;;;1.53;89.50684;101583;;;;-75
2022/11/19 09:52:22;;;;;;;;;;;;;;;1.58;89.25684;101585.2;;;;-74
2022/11/19 09:57:24;;;;;;;;;;;;;;;1.68;89.21289;101587.9;;;;-76
2022/11/19 10:02:23;;;;;;;;;;;;;;;1.75;89.22461;101590.3;;;;-75
2022/11/19 10:07:27;;;;;;;;;;;;;;;1.81;89.32617;101581;;;;-74
2022/11/19 10:08:33;;;;;;;9.7;4.6;;;;;;;;;;;;;-74
2022/11/19 10:12:27;;;;;;;;;;;;;;;1.9;89.23535;101584;;;;-75
2022/11/19 10:17:29;;;;;;;;;;;;;;;2;89.01953;101590.7;;;;-74
2022/11/19 10:22:25;;;;;;;;;;;;;;;2.11;88.56445;101590.1;;;;-73
2022/11/19 10:27:28;;;;;;;;;;;;;;;2.18;88.38672;101597.6;;;;-74
2022/11/19 10:32:26;;;;;;;;;;;;;;;2.25;88.4541;101594;;;;-75
2022/11/19 10:37:23;;;;;;;;;;;;;;;2.37;87.61133;101593.3;;;;-75
2022/11/19 10:38:30;;;;;;;9.7;4.3;;;;;;;;;;;;;-74
2022/11/19 10:42:24;;;;;;;;;;;;;;;2.47;87.75098;101583.6;;;;-73
2022/11/19 10:47:24;;;;;;;;;;;;;;;2.59;87.53711;101577.8;;;;-73
2022/11/19 10:52:33;;;;;;;;;;;;;;;2.64;87.3418;101578.6;;;;-75
2022/11/19 10:57:21;;;;;;;;;;;;;;;2.69;87.3623;101576.8;;;;-74
2022/11/19 11:02:27;;;;;;;;;;;;;;;2.78;86.74121;101580.7;;;;-75
2022/11/19 11:07:21;;;;;;;;;;;;;;;2.88;86.63086;101577.8;;;;-74
2022/11/19 11:08:26;;;;;;;9.3;3.9;;;;;;;;;;;;;-75
2022/11/19 11:17:24;;;;;;;;;;;;;;;3.02;85.91211;101562.3;;;;-74
2022/11/19 11:22:22;;;;;;;;;;;;;;;3.06;85.71289;101563.9;;;;-74
2022/11/19 11:27:30;;;;;;;;;;;;;;;3.12;85.1377;101559.5;;;;-73
2022/11/19 11:32:33;;;;;;;;;;;;;;;3.15;85.80664;101556.5;;;;-74
2022/11/19 11:37:21;;;;;;;;;;;;;;;3.19;85.09766;101552.8;;;;-74
2022/11/19 11:38:26;;;;;;;6.3;3.2;;;;;;;;;;;;;-74
2022/11/19 11:42:25;;;;;;;;;;;;;;;3.24;85.88965;101549.5;;;;-74
2022/11/19 11:47:21;;;;;;;;;;;;;;;3.29;84.46582;101546.9;;;;-74
2022/11/19 11:52:24;;;;;;;;;;;;;;;3.35;85.16211;101535.7;;;;-75
2022/11/19 11:57:22;;;;;;;;;;;;;;;3.39;83.90918;101534;;;;-74
2022/11/19 12:02:29;;;;;;;;;;;;;;;3.4;83.83691;101524.8;;;;-73
2022/11/19 12:07:30;;;;;;;;;;;;;;;3.61;81.39551;101537.8;;;;-74
2022/11/19 12:08:36;;;;;;;6.6;3.2;;;;;;;;;;;;;-74
2022/11/19 12:12:24;;;;;;;;;;;;;;;3.78;81.26465;101535.3;;;;-74
2022/11/19 12:17:30;;;;;;;;;;;;;;;3.76;79.33301;101540;;;;-75
2022/11/19 12:22:26;;;;;;;;;;;;;;;3.88;79.68164;101540.4;;;;-75
2022/11/19 12:27:25;;;;;;;;;;;;;;;3.83;79.69336;101530.5;;;;-74
2022/11/19 12:32:32;;;;;;;;;;;;;;;3.83;79.39941;101526.7;;;;-75
2022/11/19 12:37:29;;;;;;;;;;;;;;;3.84;80.1416;101527.8;;;;-78
2022/11/19 12:38:46;;;;;;;6.6;3.1;;;;;;;;;;;;;-75
2022/11/19 12:42:46;;;;;;;;;;;;;;;3.84;79.03027;101539;;;;-74
2022/11/19 12:56:59;;;;;;;;;;;;;;;3.75;78.79785;101534;;;;-76
2022/11/19 13:02:04;;;;;;;;;;;;;;;3.67;78.72656;101524.2;;;;-77
2022/11/19 13:07:07;;;;;;;;;;;;;;;3.55;79.43652;101521.3;;;;-76
2022/11/19 13:08:49;;;;;;;6.2;2.7;;;;;;;;;;;;;-76
2022/11/19 13:11:58;;;;;;;;;;;;;;;3.65;78.07129;101522.7;;;;-77
2022/11/19 13:16:47;;;;;;;;;;;;;;;3.72;78.10449;101527.3;;;;-76
2022/11/19 13:21:49;;;;;;;;;;;;;;;3.8;77.47656;101524;;;;-75
2022/11/19 13:26:47;;;;;;;;;;;;;;;3.65;77.50488;101524.6;;;;-75
2022/11/19 13:31:50;;;;;;;;;;;;;;;3.39;79.29688;101521.1;;;;-76
2022/11/19 13:36:49;;;;;;;;;;;;;;;3.28;79.24414;101518;;;;-74
2022/11/19 13:38:26;;;;;;;5.1;2.4;;;;;;;;;;;;;-77
2022/11/19 13:46:49;;;;;;;;;;;;;;;3.24;80.2373;101523.3;;;;-74
2022/11/19 13:51:48;;;;;;;;;;;;;;;3.2;81.19824;101524.9;;;;-76
2022/11/19 13:56:50;;;;;;;;;;;;;;;3.16;80.60352;101522;;;;-75
2022/11/19 14:01:53;;;;;;;;;;;;;;;3.13;80.6748;101520.6;;;;-75
2022/11/19 14:07:01;;;;;;;;;;;;;;;3.14;80.64258;101518.4;;;;-75
2022/11/19 14:08:35;;;;;;;4.2;1.9;;;;;;;;;;;;;-74
2022/11/19 14:11:59;;;;;;;;;;;;;;;3.09;81.09082;101520.8;;;;-76
2022/11/19 14:27:01;;;;;;;;;;;;;;;2.94;81.97559;101532.9;;;;-75
2022/11/19 14:32:02;;;;;;;;;;;;;;;2.9;82.44531;101528.9;;;;-75
2022/11/19 14:36:50;;;;;;;;;;;;;;;2.85;82.5;101527.5;;;;-76
2022/11/19 14:38:36;;;;;;;4.2;1.9;;;;;;;;;;;;;-75
2022/11/19 14:41:48;;;;;;;;;;;;;;;2.8;82.41699;101536;;;;-75
2022/11/19 14:46:48;;;;;;;;;;;;;;;2.74;82.4043;101537.1;;;;-75
2022/11/19 14:51:53;;;;;;;;;;;;;;;2.68;82.31641;101542.5;;;;-74
2022/11/19 14:56:49;;;;;;;;;;;;;;;2.64;82.82813;101549.1;;;;-75
2022/11/19 15:02:05;;;;;;;;;;;;;;;2.57;82.76172;101553.6;;;;-75
2022/11/19 15:06:48;;;;;;;;;;;;;;;2.53;82.28809;101557.1;;;;-77
2022/11/19 15:08:46;;;;;;;4.4;2.2;;;;;;;;;;;;;-75
2022/11/19 15:11:58;;;;;;;;;;;;;;;2.46;82.66504;101555.1;;;;-75
2022/11/19 15:16:47;;;;;;;;;;;;;;;2.39;83.07617;101550.8;;;;-75
2022/11/19 15:21:58;;;;;;;;;;;;;;;2.33;82.98535;101556.5;;;;-76
2022/11/19 15:26:53;;;;;;;;;;;;;;;2.29;83.37988;101559.8;;;;-75
2022/11/19 15:31:52;;;;;;;;;;;;;;;2.18;83.46875;101573.3;;;;-76
2022/11/19 15:36:48;;;;;;;;;;;;;;;2.14;83.53418;101578.2;;;;-75
2022/11/19 15:38:29;;;;;;;4.9;2;;;;;;;;;;;;;-77
2022/11/19 15:41:59;;;;;;;;;;;;;;;2.09;83.40625;101576.1;;;;-76
2022/11/19 15:46:55;;;;;;;;;;;;;;;1.99;83.53809;101579.4;;;;-76
2022/11/19 15:51:59;;;;;;;;;;;;;;;1.9;83.5752;101578;;;;-74
2022/11/19 15:56:51;;;;;;;;;;;;;;;1.84;83.99707;101579.3;;;;-76
2022/11/19 16:06:48;;;;;;;;;;;;;;;1.72;83.89648;101575.4;;;;-74
2022/11/19 16:08:23;;;;;;;4.3;2.1;;;;;;;;;;;;;-74
2022/11/19 16:21:48;;;;;;;;;;;;;;;1.5;84.43945;101583.7;;;;-76
2022/11/19 16:26:48;;;;;;;;;;;;;;;1.44;84.26465;101584.1;;;;-76
2022/11/19 16:31:47;;;;;;;;;;;;;;;1.38;84.28711;101587.6;;;;-75
2022/11/19 16:36:49;;;;;;;;;;;;;;;1.33;84.32129;101590;;;;-76
2022/11/19 16:38:25;;;;;;;5;2.3;;;;;;;;;;;;;-75
2022/11/19 16:46:47;;;;;;;;;;;;;;;1.23;84.31934;101583.7;;;;-76
2022/11/19 16:51:54;;;;;;;;;;;;;;;1.19;84.3125;101587.3;;;;-77
2022/11/19 16:56:48;;;;;;;;;;;;;;;1.14;84.47656;101589.9;;;;-76
2022/11/19 17:01:52;;;;;;;;;;;;;;;1.08;84.63867;101590.2;;;;-77
2022/11/19 17:06:47;;;;;;;;;;;;;;;1.02;84.57227;101591;;;;-76
2022/11/19 17:08:26;;;;;;;5.5;2.5;;;;;;;;;;;;;-75
2022/11/19 17:16:47;;;;;;;;;;;;;;;0.96;84.51563;101593.1;;;;-73
2022/11/19 17:21:50;;;;;;;;;;;;;;;0.92;84.77734;101596.4;;;;-74
2022/11/19 17:26:50;;;;;;;;;;;;;;;0.88;84.71777;101594.8;;;;-74
2022/11/19 17:31:48;;;;;;;;;;;;;;;0.89;84.64258;101593.5;;;;-75
2022/11/19 17:36:47;;;;;;;;;;;;;;;0.86;84.61523;101590.2;;;;-75
2022/11/19 17:38:22;;;;;;;6.6;2.7;;;;;;;;;;;;;-75
2022/11/19 17:46:48;;;;;;;;;;;;;;;0.75;84.85254;101596.7;;;;-75
2022/11/19 17:51:47;;;;;;;;;;;;;;;0.7;84.94141;101602.6;;;;-74
2022/11/19 17:56:47;;;;;;;;;;;;;;;0.67;84.9248;101602.6;;;;-75
2022/11/19 18:01:47;;;;;;;;;;;;;;;0.61;84.96387;101601.7;;;;-75
2022/11/19 18:06:48;;;;;;;;;;;;;;;0.55;85.0293;101607.4;;;;-76
2022/11/19 18:08:20;;;;;;;6.6;2.5;;;;;;;;;;;;;-75
2022/11/19 18:11:48;;;;;;;;;;;;;;;0.52;85.02148;101602.1;;;;-76
2022/11/19 18:16:47;;;;;;;;;;;;;;;0.51;85.05176;101609.8;;;;-76
2022/11/19 18:21:48;;;;;;;;;;;;;;;0.46;84.99121;101609.2;;;;-76
2022/11/19 18:26:47;;;;;;;;;;;;;;;0.41;85.06641;101605.8;;;;-76
2022/11/19 18:31:49;;;;;;;;;;;;;;;0.38;85.0918;101595.9;;;;-76
2022/11/19 18:36:47;;;;;;;;;;;;;;;0.34;85.07324;101593.6;;;;-75
2022/11/19 18:38:19;;;;;;;5.4;2.3;;;;;;;;;;;;;-76
2022/11/19 18:41:47;;;;;;;;;;;;;;;0.33;85.07129;101597.5;;;;-75
2022/11/19 18:46:47;;;;;;;;;;;;;;;0.28;85.07324;101599.5;;;;-75
2022/11/19 18:51:47;;;;;;;;;;;;;;;0.31;85.05762;101605.2;;;;-76
2022/11/19 18:56:47;;;;;;;;;;;;;;;0.23;85.25684;101595.2;;;;-76
2022/11/19 19:01:47;;;;;;;;;;;;;;;0.17;85.00684;101588.1;;;;-75
2022/11/19 19:06:47;;;;;;;;;;;;;;;0.19;85.3252;101587.6;;;;-74
2022/11/19 19:08:18;;;;;;;5.2;2.5;;;;;;;;;;;;;-76
2022/11/19 19:16:47;;;;;;;;;;;;;;;0.11;85.40527;101593.1;;;;-76
2022/11/19 19:21:47;;;;;;;;;;;;;;;0.13;85.27832;101595.7;;;;-75
2022/11/19 19:26:47;;;;;;;;;;;;;;;0.12;85.18066;101597.7;;;;-76
2022/11/19 19:31:47;;;;;;;;;;;;;;;0.06;85.24414;101600.1;;;;-75
2022/11/19 19:36:47;;;;;;;;;;;;;;;0.06;85.00879;101601.9;;;;-77
2022/11/19 19:38:18;;;;;;;7.2;2.8;;;;;;;;;;;;;-76
2022/11/19 19:41:47;;;;;;;;;;;;;;;0.05;85.11426;101600.1;;;;-77
2022/11/19 19:46:49;;;;;;;;;;;;;;;0.01;85.18066;101598.1;;;;-76
2022/11/19 19:51:47;;;;;;;;;;;;;;;0.01;85.05176;101598.7;;;;-75
2022/11/19 19:56:47;;;;;;;;;;;;;;;-0.02;85.06738;101590;;;;-75
2022/11/19 20:01:49;;;;;;;;;;;;;;;0.02;84.92383;101591.6;;;;-75
2022/11/19 20:06:51;;;;;;;;;;;;;;;-0.01;85.1123;101604.6;;;;-76
2022/11/19 20:08:18;;;;;;;5.9;2.6;;;;;;;;;;;;;-75
2022/11/19 20:11:47;;;;;;;;;;;;;;;-0.05;85.14648;101613.6;;;;-77
2022/11/19 20:16:48;;;;;;;;;;;;;;;-0.05;85.06934;101612.5;;;;-77
2022/11/19 20:21:46;;;;;;;;;;;;;;;-0.06;85.26367;101615.5;;;;-77
2022/11/19 20:26:47;;;;;;;;;;;;;;;-0.08;85.01172;101617.8;;;;-77
2022/11/19 20:31:48;;;;;;;;;;;;;;;-0.14;85.16309;101623.3;;;;-76
2022/11/19 20:36:48;;;;;;;;;;;;;;;-0.12;85.15332;101625.6;;;;-76
2022/11/19 20:38:17;;;;;;;6.2;2.5;;;;;;;;;;;;;-76
2022/11/19 20:46:48;;;;;;;;;;;;;;;-0.19;85.30273;101630.8;;;;-75
2022/11/19 20:51:48;;;;;;;;;;;;;;;-0.24;85.26953;101631.3;;;;-76
2022/11/19 20:56:47;;;;;;;;;;;;;;;-0.21;85.29883;101636.7;;;;-76
2022/11/19 21:01:47;;;;;;;;;;;;;;;-0.26;85.19141;101633.8;;;;-76
2022/11/19 21:06:48;;;;;;;;;;;;;;;-0.29;85.26074;101623.3;;;;-76
2022/11/19 21:08:15;;;;;;;7;2.5;;;;;;;;;;;;;-75
2022/11/19 21:11:47;;;;;;;;;;;;;;;-0.35;85.30176;101622.5;;;;-76
2022/11/19 21:16:46;;;;;;;;;;;;;;;-0.38;85.44727;101614.5;;;;-74
2022/11/19 21:21:47;;;;;;;;;;;;;;;-0.42;85.63184;101605.9;;;;-75
2022/11/19 21:26:47;;;;;;;;;;;;;;;-0.48;85.53516;101610.9;;;;-75
2022/11/19 21:31:47;;;;;;;;;;;;;;;-0.49;85.57617;101603.7;;;;-74
2022/11/19 21:36:47;;;;;;;;;;;;;;;-0.5;85.68164;101599.8;;;;-75
2022/11/19 21:38:14;;;;;;;7.2;2.7;;;;;;;;;;;;;-75
2022/11/19 21:41:46;;;;;;;;;;;;;;;-0.51;85.65723;101602.2;;;;-74
2022/11/19 21:46:46;;;;;;;;;;;;;;;-0.56;85.63672;101602.5;;;;-75
2022/11/19 21:51:47;;;;;;;;;;;;;;;-0.56;85.55273;101600;;;;-74
2022/11/19 21:56:47;;;;;;;;;;;;;;;-0.61;85.80859;101603.6;;;;-75
2022/11/19 22:01:47;;;;;;;;;;;;;;;-0.59;85.49023;101594.7;;;;-73
2022/11/19 22:06:46;;;;;;;;;;;;;;;-0.61;85.54004;101588.4;;;;-74
2022/11/19 22:08:13;;;;;;;6.8;2.6;;;;;;;;;;;;;-75
2022/11/19 22:11:47;;;;;;;;;;;;;;;-0.63;85.55762;101581.7;;;;-75
2022/11/19 22:16:50;;;;;;;;;;;;;;;-0.72;85.70313;101584.8;;;;-75
2022/11/19 22:21:48;;;;;;;;;;;;;;;-0.74;85.7832;101591.9;;;;-74
2022/11/19 22:26:49;;;;;;;;;;;;;;;-0.7;85.74805;101579.7;;;;-75
2022/11/19 22:31:48;;;;;;;;;;;;;;;-0.8;85.76172;101576.5;;;;-75
2022/11/19 22:36:47;;;;;;;;;;;;;;;-0.81;85.72754;101576.6;;;;-74
2022/11/19 22:38:12;;;;;;;4.8;2.5;;;;;;;;;;;;;-76
2022/11/19 22:41:46;;;;;;;;;;;;;;;-0.8;85.57715;101564.7;;;;-74
2022/11/19 22:46:47;;;;;;;;;;;;;;;-0.88;85.68066;101562.9;;;;-75
2022/11/19 22:51:48;;;;;;;;;;;;;;;-0.88;85.74512;101561.6;;;;-77
2022/11/19 22:56:47;;;;;;;;;;;;;;;-0.95;85.85938;101568.6;;;;-75
2022/11/19 23:01:46;;;;;;;;;;;;;;;-1.01;85.75195;101565.6;;;;-75
2022/11/19 23:06:47;;;;;;;;;;;;;;;-1.06;85.73145;101571.7;;;;-76
2022/11/19 23:08:12;;;;;;;6.2;2.7;;;;;;;;;;;;;-74
2022/11/19 23:16:47;;;;;;;;;;;;;;;-1.16;85.84961;101565.1;;;;-75
2022/11/19 23:21:47;;;;;;;;;;;;;;;-1.25;85.70215;101547.3;;;;-78
2022/11/19 23:26:47;;;;;;;;;;;;;;;-1.27;85.85938;101545;;;;-75
2022/11/19 23:31:47;;;;;;;;;;;;;;;-1.42;85.9375;101538.2;;;;-74
2022/11/19 23:36:47;;;;;;;;;;;;;;;-1.49;85.72949;101543.5;;;;-75
2022/11/19 23:38:10;;;;;;;5.3;2.5;;;;;;;;;;;;;-75
2022/11/19 23:41:47;;;;;;;;;;;;;;;-1.48;85.83887;101543.2;;;;-75
2022/11/19 23:46:47;;;;;;;;;;;;;;;-1.55;85.56641;101542.5;;;;-76
2022/11/19 23:48:30;;;;;;;;;;;;;;;-1.48;85.5918;101539.9;;;;-73
2022/11/19 23:52:05;;;;;;;;;;;;;;;-1.6;85.60059;101540.5;;;;-76
2022/11/19 23:57:03;;;;;;;;;;;;;;;-1.7;85.55859;101542.7;;;;-75
